Flight Track Log - Related Links

Times and Time Zones

All times are in EDT time to prevent confusion due to time zone crossing. See the LXJ524 flight status page for this flight to view local times or setup timezone preferences in your user account.

Time Position Orientation Groundspeed Altitude Reporting Facility
EDT Latitude Longitude Course Direction KTS MPH feet Rate Location/Type
Mon 01:25:16 PM 41.2311 -70.1236 North 202 232 2,600  Level Boston Center
Mon 01:26:18 PM 41.2422 -70.2125 279° West 258 297 7,000 3,902 Climbing Boston Center
Mon 01:27:19 PM 41.3211 -70.2297 351° North 305 351 10,600 3,561 Climbing Boston Center
Mon 01:28:21 PM 41.4111 -70.2053 12° North 330 380 14,300 3,561 Climbing Boston Center
Mon 01:29:22 PM 41.5075 -70.1828 10° North 350 403 17,900 3,171 Climbing Boston Center
Mon 01:30:00 PM 41.7845 -70.0333 North  Level FlightAware Approximate
Mon 01:30:24 PM 41.6078 -70.2558 331° Northwest 367 422 20,800  Level Boston Center
Mon 01:31:25 PM 41.6953 -70.3328 327° Northwest 372 428 24,000 2,439 Climbing Boston Center
Mon 01:32:27 PM 41.7769 -70.4083 325° Northwest 363 418 25,800 1,415 Climbing Boston Center
Mon 01:33:28 PM 41.8692 -70.4944 325° Northwest 362 417 26,900 1,073 Climbing Boston Center
Mon 01:34:30 PM 41.9431 -70.5956 315° West 387 445 28,000 1,024 Climbing Boston Center
Mon 01:35:31 PM 41.9950 -70.7231 299° West 388 447 29,000 927 Climbing Boston Center
Mon 01:36:33 PM 42.0475 -70.8522 299° West 391 450 29,900 1,220 Climbing Boston Center
Mon 01:37:34 PM 42.0997 -70.9875 298° West 405 466 31,500 2,000 Climbing Boston Center
Mon 01:38:36 PM 42.1542 -71.1219 299° West 411 473 34,000 2,177 Climbing Boston Center
Mon 01:39:38 PM 42.2114 -71.2650 298° West 397 457 36,000 1,610 Climbing Boston Center
Mon 01:40:39 PM 42.2628 -71.3972 298° West 397 457 37,300 1,561 Climbing Boston Center
Mon 01:41:41 PM 42.3114 -71.5247 297° West 390 449 39,200 1,659 Climbing Boston Center
Mon 01:42:42 PM 42.3592 -71.6483 298° West 378 435 40,700 1,317 Climbing Boston Center
Mon 01:43:44 PM 42.4061 -71.7689 298° West 368 423 41,900 1,073 Climbing Boston Center
Mon 01:44:45 PM 42.4489 -71.8903 296° West 362 417 42,900 537 Climbing Boston Center
Mon 01:45:47 PM 42.4678 -72.0525 279° West 363 418 43,000 49 Climbing Boston Center
Mon 01:46:48 PM 42.4817 -72.1936 278° West 377 434 43,000  Level Boston Center
Mon 01:47:50 PM 42.4972 -72.3256 279° West 378 435 43,000  Level Boston Center
Mon 01:48:52 PM 42.5117 -72.4653 278° West 378 435 43,000  Level Boston Center
Mon 01:49:53 PM 42.5253 -72.6050 278° West 378 435 43,000  Level Boston Center
Mon 01:50:55 PM 42.5422 -72.7706 278° West 375 432 43,000  Level Boston Center
Mon 01:51:56 PM 42.5564 -72.9092 278° West 375 432 43,000  Level Boston Center
Mon 01:52:58 PM 42.5694 -73.0486 277° West 375 432 43,000  Level Boston Center
Mon 01:54:00 PM 42.5842 -73.1889 278° West 375 432 43,000  Level Boston Center
Mon 01:55:01 PM 42.5981 -73.3281 278° West 375 432 43,000  Level Boston Center
Mon 01:56:03 PM 42.6106 -73.4669 277° West 375 432 43,000  Level Boston Center
Mon 01:57:04 PM 42.6236 -73.6067 277° West 375 432 43,000  Level Boston Center
Mon 01:58:06 PM 42.6389 -73.7764 277° West 375 432 43,000  Level Boston Center
Mon 01:59:08 PM 42.6514 -73.9197 277° West 378 435 43,000  Level Boston Center
Mon 02:00:09 PM 42.6639 -74.0619 277° West 379 436 43,000  Level Boston Center
Mon 02:01:11 PM 42.6539 -74.2058 265° West 383 441 43,000  Level Boston Center
Mon 02:02:13 PM 42.6456 -74.3497 266° West 383 441 43,000  Level Boston Center
Mon 02:03:14 PM 42.6369 -74.4925 265° West 383 441 43,000  Level Boston Center
Mon 02:04:16 PM 42.6272 -74.6347 265° West 381 438 43,000  Level Boston Center
Mon 02:05:18 PM 42.6183 -74.7764 265° West 379 436 43,000  Level Boston Center
Mon 02:06:19 PM 42.6072 -74.9447 265° West 377 434 43,000  Level Boston Center
Mon 02:07:21 PM 42.5978 -75.0867 265° West 377 434 43,000  Level Boston Center
Mon 02:08:23 PM 42.5883 -75.2278 265° West 377 434 43,000  Level Boston Center
Mon 02:09:25 PM 42.5789 -75.3669 265° West 372 428 43,000  Level Boston Center
Mon 02:10:26 PM 42.5692 -75.5078 265° West 375 432 43,000  Level Boston Center
Mon 02:11:28 PM 42.5581 -75.6478 264° West 374 430 43,000  Level Boston Center
Mon 02:12:30 PM 42.5461 -75.7883 263° West 374 430 43,000  Level Boston Center
Mon 02:13:31 PM 42.5372 -75.9294 265° West 374 430 43,000  Level Boston Center
Mon 02:14:33 PM 42.5236 -76.0989 264° West 375 432 43,000  Level Boston Center
Mon 02:15:34 PM 42.5144 -76.2400 265° West 376 433 43,000  Level Boston Center
Mon 02:16:36 PM 42.5017 -76.3883 263° West 378 435 43,000  Level Boston Center
Mon 02:17:38 PM 42.4828 -76.5303 260° West 380 437 43,000  Level Boston Center
Mon 02:18:39 PM 42.4594 -76.6697 257° West 380 437 43,000  Level Boston Center
Mon 02:19:41 PM 42.4342 -76.8103 256° West 382 440 43,000  Level Boston Center
Mon 02:20:42 PM 42.4094 -76.9497 257° West 382 440 43,000  Level Boston Center
Mon 02:21:44 PM 42.3844 -77.0908 257° West 383 441 43,000  Level Boston Center
Mon 02:22:45 PM 42.3600 -77.2328 257° West 384 442 43,000  Level Boston Center
Mon 02:24:11 PM 42.3244 -77.4297 256° West 384 442 43,000  Level Cleveland Center
Mon 02:25:13 PM 42.2925 -77.5994 256° West 385 443 43,000  Level Cleveland Center
Mon 02:26:15 PM 42.2672 -77.7406 256° West 385 443 43,000  Level Cleveland Center
Mon 02:27:18 PM 42.2411 -77.8811 256° West 385 443 43,000  Level Cleveland Center
Mon 02:28:20 PM 42.2161 -78.0231 257° West 385 443 43,000  Level Cleveland Center
Mon 02:29:22 PM 42.1894 -78.1636 256° West 385 443 43,000  Level Cleveland Center
Mon 02:30:24 PM 42.1642 -78.3017 256° West 393 452 43,000  Level Cleveland Center
Mon 02:31:26 PM 42.1317 -78.4692 255° West 392 451 43,000  Level Cleveland Center
Mon 02:32:28 PM 42.1042 -78.6097 255° West 390 449 43,000  Level Cleveland Center
Mon 02:33:30 PM 42.0772 -78.7511 256° West 392 451 43,000  Level Cleveland Center
Mon 02:34:32 PM 42.0494 -78.8914 255° West 392 451 43,000  Level Cleveland Center
Mon 02:35:34 PM 42.0167 -79.0608 255° West 393 452 43,000  Level Cleveland Center
Mon 02:36:37 PM 41.9889 -79.2042 255° West 398 458 43,000  Level Cleveland Center
Mon 02:37:39 PM 41.9600 -79.3475 255° West 399 459 43,000  Level Cleveland Center
Mon 02:38:41 PM 41.9308 -79.4914 255° West 401 461 43,000  Level Cleveland Center
Mon 02:39:43 PM 41.8983 -79.6539 255° West 401 461 43,000  Level Cleveland Center
Mon 02:40:45 PM 41.8678 -79.8006 254° West 403 464 43,000  Level Cleveland Center
Mon 02:41:47 PM 41.8375 -79.9436 254° West 400 460 43,000  Level Cleveland Center
Mon 02:42:49 PM 41.8083 -80.0881 255° West 399 459 43,000  Level Cleveland Center
Mon 02:43:51 PM 41.7789 -80.2311 255° West 397 457 43,000  Level Cleveland Center
Mon 02:44:53 PM 41.7483 -80.3744 254° West 397 457 43,000  Level Cleveland Center
Mon 02:45:56 PM 41.7131 -80.5417 254° West 397 457 43,000  Level Cleveland Center
Mon 02:46:58 PM 41.6842 -80.6853 255° West 397 457 43,000  Level Cleveland Center
Mon 02:48:00 PM 41.6528 -80.8281 254° West 397 457 43,000  Level Cleveland Center
Mon 02:49:02 PM 41.6228 -80.9703 254° West 396 456 43,000  Level Cleveland Center
Mon 02:50:04 PM 41.5919 -81.1136 254° West 396 456 43,000  Level Cleveland Center
Mon 02:51:06 PM 41.5775 -81.2581 262° West 394 453 43,000  Level Cleveland Center
Mon 02:52:08 PM 41.5753 -81.4303 269° West 393 452 43,000  Level Cleveland Center
Mon 02:53:10 PM 41.5736 -81.5786 269° West 398 458 43,000  Level Cleveland Center
Mon 02:54:12 PM 41.5703 -81.7275 268° West 399 459 43,000  Level Cleveland Center
Mon 02:55:15 PM 41.5669 -81.8778 268° West 402 463 43,000  Level Cleveland Center
Mon 02:56:17 PM 41.5642 -82.0283 269° West 403 464 43,000  Level Cleveland Center
Mon 02:57:19 PM 41.5606 -82.2047 268° West 405 466 43,000  Level Cleveland Center
Mon 02:58:21 PM 41.5569 -82.3553 268° West 405 466 43,000  Level Cleveland Center
Mon 02:59:23 PM 41.5539 -82.5072 269° West 405 466 43,000  Level Cleveland Center
Mon 03:00:26 PM 41.5492 -82.6586 268° West 405 466 43,000  Level Cleveland Center
Mon 03:01:28 PM 41.5453 -82.8094 268° West 405 466 43,000  Level Cleveland Center
Mon 03:02:30 PM 41.5417 -82.9592 268° West 404 465 43,000  Level Cleveland Center
Mon 03:03:32 PM 41.5367 -83.1111 268° West 404 465 43,000  Level Cleveland Center
Mon 03:04:34 PM 41.5311 -83.2667 267° West 404 465 43,000  Level Cleveland Center
Mon 03:05:36 PM 41.5267 -83.4161 268° West 404 465 43,000  Level Cleveland Center
Mon 03:06:38 PM 41.5203 -83.5925 267° West 400 460 43,000 -48 Level Cleveland Center
Mon 03:07:40 PM 41.5169 -83.7383 268° West 397 457 42,900 -1,008 Descending Cleveland Center
Mon 03:08:43 PM 41.5106 -83.8867 267° West 398 458 40,900 -1,968 Descending Cleveland Center
Mon 03:09:45 PM 41.5058 -84.0331 268° West 399 459 38,800 -2,032 Descending Cleveland Center
Mon 03:10:47 PM 41.5000 -84.1792 267° West 395 455 36,700 -2,226 Descending Cleveland Center
Mon 03:11:49 PM 41.4933 -84.3539 267° West 413 475 34,200 -2,323 Descending Cleveland Center
Mon 03:12:51 PM 41.4861 -84.5128 267° West 425 489 31,900 -2,032 Descending Cleveland Center
Mon 03:13:53 PM 41.4811 -84.6733 268° West 432 497 30,000 -919 Descending Cleveland Center
Mon 03:14:55 PM 41.4881 -84.8286 273° West 425 489 30,000 -203 Level Cleveland Center
Mon 03:15:51 PM 41.4939 -84.9853 273° West 426 490 29,600 -1,068 Descending Chicago Center
Mon 03:16:53 PM 41.5000 -85.1469 273° West 428 493 27,900 -1,742 Descending Chicago Center
Mon 03:17:55 PM 41.5050 -85.3125 272° West 437 503 26,000 -1,790 Descending Chicago Center
Mon 03:18:57 PM 41.5108 -85.4747 273° West 429 494 24,200 -1,597 Descending Chicago Center
Mon 03:19:59 PM 41.5167 -85.6267 273° West 401 461 22,700 -1,548 Descending Chicago Center
Mon 03:21:01 PM 41.5189 -85.7767 271° West 401 461 21,000 -1,597 Descending Chicago Center
Mon 03:22:03 PM 41.5217 -85.9289 271° West 403 464 19,400 -2,112 Descending Chicago Center
Mon 03:23:06 PM 41.5250 -86.1017 272° West 383 441 16,600 -2,592 Descending Chicago Center
Mon 03:24:08 PM 41.5244 -86.2322 270° West 352 405 14,000 -2,419 Descending Chicago Center
Mon 03:25:10 PM 41.5231 -86.3556 269° West 332 382 11,600 -1,597 Descending Chicago Center
Mon 03:26:12 PM 41.5228 -86.4811 270° West 334 384 10,700 -774 Descending Chicago Center
Mon 03:27:14 PM 41.5214 -86.5869 269° West 289 333 10,000 -774 Descending Chicago Center
Mon 03:28:16 PM 41.5203 -86.6900 269° West 279 321 9,100 -919 Descending Chicago Center
Mon 03:29:18 PM 41.5208 -86.8197 270° West 280 322 8,100 -1,200 Descending Chicago Center
Mon 03:30:21 PM 41.5208 -86.9253 270° West 285 328 6,600 -1,008 Descending Chicago Center
Mon 03:31:23 PM 41.5183 -87.0367 268° West 282 325 6,000 -290 Descending Chicago Center
Mon 03:32:25 PM 41.5172 -87.1400 269° West 279 321 6,000 -242 Level Chicago Center
Mon 03:33:27 PM 41.5214 -87.2439 273° West 280 322 5,500 -774 Descending Chicago Center
Mon 03:34:29 PM 41.5278 -87.3539 274° West 276 318 4,400 -726 Descending Chicago Center
Mon 03:35:31 PM 41.5328 -87.4533 274° West 272 313 4,000 -194 Descending Chicago Center
Mon 03:36:33 PM 41.5383 -87.5583 274° West 267 307 4,000  Level Chicago Center
Mon 03:37:35 PM 41.5439 -87.6564 274° West 265 305 4,000 -48 Level Chicago Center
Mon 03:38:38 PM 41.5572 -87.7594 280° West 264 304 3,900 -624 Descending Chicago Center
Mon 03:39:40 PM 41.5914 -87.8431 299° West 255 293 2,700 -677 Descending Chicago Center
Mon 03:40:42 PM 41.6206 -87.9089 301° West 205 236 2,500 -97 Descending Chicago Center
Mon 03:41:44 PM 41.6694 -87.8853 20° North 180 207 2,500  Level Chicago Center
Mon 03:42:46 PM 41.7103 -87.8461 36° Northeast 180 207 2,500 -387 Level Chicago Center
Mon 03:43:48 PM 41.7439 -87.8053 42° Northeast 156 180 1,700 -774 Descending Chicago Center
Mon 03:44:50 PM 41.7722 -87.7722 41° Northeast 128 147 900 -480 Descending Chicago Center
Mon 03:45:53 PM 41.7922 -87.7467 44° Northeast 125 144 700 -190 Descending Chicago Center

Login

Don't have an account? Register now (free) for customized features, flight alerts, and more!